Weather at Eppley Airfield

Public forecast

Using degrees Fahrenheit for public forecast. Weather courtesy of forecast.io.

Current aviation weather report (METAR) for Eppley Airfield

Report is more than 6 hours old.

2022/11/14 14:52 (retrieved 2 years ago)

KOMA 141452Z 23004KT 10SM BKN080 BKN100 BKN200 01/M06 A3016 RMK AO2 SLP223 T00111056 53005

Aviation forecast (TAF) for Eppley Airfield

Forecast is more than 12 hours old.

2023/02/22 20:22 Ammendment (retrieved 1 year ago)

TAF AMD KOMA 222020Z 2220/2318 01015G23KT 3SM BR OVC010 TEMPO 2220/2223 1 1/2SM -FZDZ BR FM222330 36016G24KT 3SM BR VCSH OVC012 FM230400 35012KT 5SM -SN OVC008 TEMPO 2304/2307 1SM -SN FM231000 31017G27KT P6SM BKN025 FM231300 31019G30KT P6SM BKN050